createdAt,value
2022-12-25T00:01:40.188Z,10.00
2022-12-25T00:11:58.265Z,9.70
2022-12-25T00:17:00.305Z,9.70
2022-12-25T00:22:02.423Z,9.80
2022-12-25T00:27:04.654Z,9.80
2022-12-25T00:32:06.918Z,9.80
2022-12-25T00:37:09.292Z,9.90
2022-12-25T00:42:20.942Z,9.90
2022-12-25T00:47:23.320Z,10.00
2022-12-25T00:52:25.511Z,10.00
2022-12-25T00:57:27.648Z,10.00
2022-12-25T01:02:29.808Z,9.90
2022-12-25T01:07:31.976Z,10.20
2022-12-25T01:12:39.251Z,10.20
2022-12-25T01:17:43.023Z,9.90
2022-12-25T01:22:46.032Z,9.90
2022-12-25T01:27:48.029Z,10.10
2022-12-25T01:32:50.029Z,10.30
2022-12-25T01:37:52.726Z,10.10
2022-12-25T01:42:54.801Z,10.20
2022-12-25T01:47:57.284Z,10.20
2022-12-25T01:52:59.381Z,10.30
2022-12-25T01:58:01.514Z,10.40
2022-12-25T02:03:04.938Z,10.90
2022-12-25T02:08:14.974Z,10.80
2022-12-25T02:13:20.421Z,10.80
2022-12-25T02:18:39.888Z,10.50
2022-12-25T02:24:03.475Z,10.70
2022-12-25T02:29:23.507Z,10.30
2022-12-25T02:34:47.583Z,10.60
2022-12-25T02:40:12.924Z,10.50
2022-12-25T02:45:44.920Z,10.30
2022-12-25T02:51:07.135Z,10.10
2022-12-25T02:56:28.991Z,10.40
2022-12-25T03:01:53.801Z,10.30
2022-12-25T03:07:04.567Z,10.70
2022-12-25T03:12:42.889Z,10.40
2022-12-25T03:17:45.358Z,10.40
2022-12-25T03:23:07.067Z,10.30
2022-12-25T03:28:09.422Z,10.40
2022-12-25T03:33:46.095Z,10.40
2022-12-25T03:39:21.276Z,10.40
2022-12-25T03:45:05.838Z,10.60
2022-12-25T03:50:37.452Z,10.60
2022-12-25T03:56:00.202Z,10.40
2022-12-25T04:01:21.017Z,10.20
2022-12-25T04:06:41.721Z,10.30
2022-12-25T04:12:03.234Z,10.40
2022-12-25T04:17:23.692Z,10.30
2022-12-25T04:22:44.349Z,10.10
2022-12-25T04:28:04.974Z,10.10
2022-12-25T04:33:25.432Z,9.80
2022-12-25T04:38:27.382Z,10.30
2022-12-25T04:43:29.989Z,10.00
2022-12-25T04:48:35.935Z,9.80
2022-12-25T04:53:37.942Z,10.00
2022-12-25T04:58:41.152Z,9.90
2022-12-25T05:03:43.524Z,9.90
2022-12-25T05:08:45.561Z,10.10
2022-12-25T05:13:47.541Z,10.00
2022-12-25T05:18:51.453Z,9.90
2022-12-25T05:23:54.110Z,10.00
2022-12-25T05:28:56.724Z,9.80
2022-12-25T05:33:59.175Z,9.70
2022-12-25T05:39:01.127Z,9.80
2022-12-25T05:44:03.333Z,9.90
2022-12-25T05:49:05.827Z,9.80
2022-12-25T05:54:07.954Z,10.00
2022-12-25T05:59:10.336Z,10.10
2022-12-25T06:04:13.213Z,10.00
2022-12-25T06:09:15.406Z,9.90
2022-12-25T06:14:17.421Z,9.80
2022-12-25T06:19:20.875Z,10.00
2022-12-25T06:24:24.057Z,10.00
2022-12-25T06:29:26.220Z,10.00
2022-12-25T06:34:28.301Z,10.40
2022-12-25T06:39:30.451Z,10.20
2022-12-25T06:44:33.761Z,10.00
2022-12-25T06:49:35.987Z,10.00
2022-12-25T06:54:38.025Z,10.10
2022-12-25T06:59:40.346Z,10.00
2022-12-25T07:04:43.293Z,10.10
2022-12-25T07:09:45.311Z,10.10
2022-12-25T07:14:50.036Z,10.00
2022-12-25T07:19:52.556Z,10.10
2022-12-25T07:24:54.557Z,10.20
2022-12-25T07:29:56.526Z,10.30
2022-12-25T07:34:59.014Z,10.70
2022-12-25T07:40:01.186Z,10.70
2022-12-25T07:45:04.251Z,10.30
2022-12-25T07:50:07.435Z,10.50
2022-12-25T07:55:10.629Z,10.80
2022-12-25T08:00:13.697Z,10.60
2022-12-25T08:05:15.883Z,10.50
2022-12-25T08:10:17.985Z,10.60
2022-12-25T08:15:19.969Z,10.70
2022-12-25T08:20:22.354Z,10.60
2022-12-25T08:25:24.302Z,10.90
2022-12-25T08:30:26.538Z,10.80
2022-12-25T08:35:28.650Z,10.60
2022-12-25T08:40:30.663Z,10.90
2022-12-25T08:45:35.450Z,10.70
2022-12-25T08:50:37.533Z,11.20
2022-12-25T08:55:40.311Z,11.20
2022-12-25T09:00:42.729Z,11.40
2022-12-25T09:05:44.716Z,11.40
2022-12-25T09:10:46.662Z,11.40
2022-12-25T09:15:48.725Z,11.40
2022-12-25T09:21:03.081Z,11.50
2022-12-25T09:26:08.571Z,11.60
2022-12-25T09:31:11.608Z,11.60
2022-12-25T09:36:13.855Z,11.60
2022-12-25T09:41:50.431Z,11.70
2022-12-25T09:47:04.547Z,11.80
2022-12-25T09:52:25.866Z,12.00
2022-12-25T09:57:28.033Z,12.10
2022-12-25T10:02:52.079Z,12.30
2022-12-25T10:08:04.287Z,12.30
2022-12-25T10:13:06.210Z,12.50
2022-12-25T10:18:17.215Z,12.50
2022-12-25T10:23:39.052Z,13.10
2022-12-25T10:28:46.846Z,13.30
2022-12-25T10:33:51.181Z,13.30
2022-12-25T10:38:55.012Z,13.40
2022-12-25T10:43:57.958Z,13.60
2022-12-25T10:49:02.927Z,13.70
2022-12-25T10:54:27.931Z,13.70
2022-12-25T10:59:41.815Z,13.70
2022-12-25T11:04:44.396Z,13.80
2022-12-25T11:10:02.731Z,13.90
2022-12-25T11:15:39.261Z,13.90
2022-12-25T11:21:00.628Z,13.90
2022-12-25T11:26:08.400Z,15.10
2022-12-25T11:31:21.240Z,15.30
2022-12-25T11:36:45.469Z,14.50
2022-12-25T11:41:50.488Z,14.50
2022-12-25T12:33:20.133Z,15.00
2022-12-25T12:38:24.710Z,21.00
2022-12-25T12:43:39.686Z,20.10
2022-12-25T12:48:46.880Z,19.70
2022-12-25T12:53:48.877Z,17.50
2022-12-25T12:58:51.331Z,16.70
2022-12-25T13:04:40.377Z,16.20
2022-12-25T14:47:55.636Z,16.10
2022-12-25T14:52:59.723Z,15.60
2022-12-25T14:58:07.806Z,15.10
2022-12-25T15:03:32.211Z,14.90
2022-12-25T15:08:35.606Z,14.60
2022-12-25T15:13:37.731Z,14.80
2022-12-25T15:18:44.566Z,14.80
2022-12-25T15:23:47.089Z,15.00
2022-12-25T15:28:49.272Z,15.10
2022-12-25T15:33:53.167Z,14.90
2022-12-25T15:38:55.873Z,14.80
2022-12-25T15:43:58.016Z,14.80
2022-12-25T15:49:00.922Z,14.90
2022-12-25T15:54:02.965Z,14.90
2022-12-25T15:59:05.033Z,15.00
2022-12-25T16:04:07.091Z,15.00
2022-12-25T16:09:12.290Z,15.20
2022-12-25T16:14:15.105Z,15.10
2022-12-25T16:19:17.082Z,15.00
2022-12-25T16:24:19.139Z,14.80
2022-12-25T16:29:21.205Z,14.80
2022-12-25T16:34:23.225Z,15.00
2022-12-25T16:39:25.238Z,15.10
2022-12-25T16:44:27.310Z,15.10
2022-12-25T16:49:29.401Z,15.20
2022-12-25T16:54:31.490Z,15.10
2022-12-25T16:59:34.731Z,15.10
2022-12-25T17:04:36.770Z,15.00
2022-12-25T17:09:44.047Z,14.90
2022-12-25T17:14:46.621Z,15.20
2022-12-25T17:19:48.622Z,15.00
2022-12-25T17:24:50.720Z,14.70
2022-12-25T17:29:52.863Z,14.50
2022-12-25T17:34:54.920Z,14.50
2022-12-25T17:39:56.974Z,14.30
2022-12-25T17:44:58.994Z,14.20
2022-12-25T17:50:00.993Z,14.20
2022-12-25T17:55:03.215Z,14.10
2022-12-25T18:00:06.674Z,14.10
2022-12-25T18:05:09.270Z,14.00
2022-12-25T18:10:12.143Z,13.90
2022-12-25T18:15:14.394Z,13.90
2022-12-25T18:20:16.567Z,13.80
2022-12-25T18:25:18.622Z,13.70
2022-12-25T18:30:21.039Z,13.60
2022-12-25T18:35:23.475Z,13.60
2022-12-25T18:40:25.414Z,13.40
2022-12-25T18:55:33.246Z,13.40
2022-12-25T19:00:35.329Z,13.30
2022-12-25T19:05:40.586Z,13.30
2022-12-25T19:10:45.482Z,13.20
2022-12-25T19:15:47.553Z,13.10
2022-12-25T19:20:49.675Z,13.00
2022-12-25T19:25:51.704Z,13.00
